sensor_id;sensor_type;location;lat;lon;timestamp;temperature;humidity
29575;DHT22;16507;51.046;6.406;2023-02-01T00:01:09;6.30;99.90
29575;DHT22;16507;51.046;6.406;2023-02-01T00:03:35;6.30;99.90
29575;DHT22;16507;51.046;6.406;2023-02-01T00:06:00;6.30;99.90
29575;DHT22;16507;51.046;6.406;2023-02-01T00:08:26;6.20;99.90
29575;DHT22;16507;51.046;6.406;2023-02-01T00:10:59;6.10;99.90
29575;DHT22;16507;51.046;6.406;2023-02-01T00:13:27;6.10;99.90
29575;DHT22;16507;51.046;6.406;2023-02-01T00:15:53;6.10;99.90
29575;DHT22;16507;51.046;6.406;2023-02-01T00:18:18;6.00;99.90
29575;DHT22;16507;51.046;6.406;2023-02-01T00:20:47;6.00;99.90
29575;DHT22;16507;51.046;6.406;2023-02-01T00:23:12;5.90;99.90
29575;DHT22;16507;51.046;6.406;2023-02-01T00:25:38;5.90;99.90
29575;DHT22;16507;51.046;6.406;2023-02-01T00:28:05;5.90;99.90
29575;DHT22;16507;51.046;6.406;2023-02-01T00:30:30;5.80;99.90
29575;DHT22;16507;51.046;6.406;2023-02-01T00:32:55;5.90;99.90
29575;DHT22;16507;51.046;6.406;2023-02-01T00:35:21;5.90;99.90
29575;DHT22;16507;51.046;6.406;2023-02-01T00:37:46;5.90;99.90
29575;DHT22;16507;51.046;6.406;2023-02-01T00:40:12;5.90;99.90
29575;DHT22;16507;51.046;6.406;2023-02-01T00:42:37;5.90;99.90
29575;DHT22;16507;51.046;6.406;2023-02-01T00:45:04;5.80;99.90
29575;DHT22;16507;51.046;6.406;2023-02-01T00:47:30;5.80;99.90
29575;DHT22;16507;51.046;6.406;2023-02-01T00:49:55;5.70;99.90
29575;DHT22;16507;51.046;6.406;2023-02-01T00:52:21;5.70;99.90
29575;DHT22;16507;51.046;6.406;2023-02-01T00:54:46;5.70;99.90
29575;DHT22;16507;51.046;6.406;2023-02-01T00:57:12;5.70;99.90
29575;DHT22;16507;51.046;6.406;2023-02-01T00:59:37;5.60;99.90
29575;DHT22;16507;51.046;6.406;2023-02-01T01:02:03;5.60;99.90
29575;DHT22;16507;51.046;6.406;2023-02-01T01:04:28;5.50;99.90
29575;DHT22;16507;51.046;6.406;2023-02-01T01:06:54;5.40;99.90
29575;DHT22;16507;51.046;6.406;2023-02-01T01:09:19;5.30;99.90
29575;DHT22;16507;51.046;6.406;2023-02-01T01:11:45;5.30;99.90
29575;DHT22;16507;51.046;6.406;2023-02-01T01:14:10;5.30;99.90
29575;DHT22;16507;51.046;6.406;2023-02-01T01:16:36;5.30;99.90
29575;DHT22;16507;51.046;6.406;2023-02-01T01:19:02;5.40;99.90
29575;DHT22;16507;51.046;6.406;2023-02-01T01:21:27;5.30;99.90
29575;DHT22;16507;51.046;6.406;2023-02-01T01:23:53;5.30;99.90
29575;DHT22;16507;51.046;6.406;2023-02-01T01:26:22;5.30;99.90
29575;DHT22;16507;51.046;6.406;2023-02-01T01:28:48;5.20;99.90
29575;DHT22;16507;51.046;6.406;2023-02-01T01:31:14;5.20;99.90
29575;DHT22;16507;51.046;6.406;2023-02-01T01:33:40;5.20;99.90
29575;DHT22;16507;51.046;6.406;2023-02-01T01:36:06;5.20;99.90
29575;DHT22;16507;51.046;6.406;2023-02-01T01:38:32;5.20;99.90
29575;DHT22;16507;51.046;6.406;2023-02-01T01:40:57;5.20;99.90
29575;DHT22;16507;51.046;6.406;2023-02-01T01:43:22;5.20;99.90
29575;DHT22;16507;51.046;6.406;2023-02-01T01:45:48;5.20;99.90
29575;DHT22;16507;51.046;6.406;2023-02-01T01:48:25;5.20;99.90
29575;DHT22;16507;51.046;6.406;2023-02-01T01:51:03;5.20;99.90
29575;DHT22;16507;51.046;6.406;2023-02-01T01:53:31;5.30;99.90
29575;DHT22;16507;51.046;6.406;2023-02-01T01:55:58;5.40;99.90
29575;DHT22;16507;51.046;6.406;2023-02-01T01:58:26;5.40;99.90
29575;DHT22;16507;51.046;6.406;2023-02-01T02:00:53;5.50;99.90
29575;DHT22;16507;51.046;6.406;2023-02-01T02:05:47;5.50;99.90
29575;DHT22;16507;51.046;6.406;2023-02-01T02:08:14;5.50;99.90
29575;DHT22;16507;51.046;6.406;2023-02-01T02:10:39;5.60;99.90
29575;DHT22;16507;51.046;6.406;2023-02-01T02:13:24;5.50;99.90
29575;DHT22;16507;51.046;6.406;2023-02-01T02:15:59;5.60;99.90
29575;DHT22;16507;51.046;6.406;2023-02-01T02:23:44;5.70;99.90
29575;DHT22;16507;51.046;6.406;2023-02-01T02:28:56;5.80;99.90
29575;DHT22;16507;51.046;6.406;2023-02-01T02:34:15;5.80;99.90
29575;DHT22;16507;51.046;6.406;2023-02-01T02:36:52;5.80;99.90
29575;DHT22;16507;51.046;6.406;2023-02-01T02:47:42;5.80;99.90
29575;DHT22;16507;51.046;6.406;2023-02-01T02:53:08;5.70;99.90
29575;DHT22;16507;51.046;6.406;2023-02-01T02:55:59;5.80;99.90
29575;DHT22;16507;51.046;6.406;2023-02-01T02:58:43;5.80;99.90
29575;DHT22;16507;51.046;6.406;2023-02-01T03:01:29;5.80;99.90
29575;DHT22;16507;51.046;6.406;2023-02-01T03:04:14;5.90;99.90
29575;DHT22;16507;51.046;6.406;2023-02-01T03:06:45;5.80;99.90
29575;DHT22;16507;51.046;6.406;2023-02-01T03:09:16;5.80;99.90
29575;DHT22;16507;51.046;6.406;2023-02-01T03:11:44;5.80;99.90
29575;DHT22;16507;51.046;6.406;2023-02-01T03:14:30;5.80;99.90
29575;DHT22;16507;51.046;6.406;2023-02-01T03:16:59;5.90;99.90
29575;DHT22;16507;51.046;6.406;2023-02-01T03:19:31;5.90;99.90
29575;DHT22;16507;51.046;6.406;2023-02-01T03:24:29;5.90;99.90
29575;DHT22;16507;51.046;6.406;2023-02-01T03:27:05;5.90;99.90
29575;DHT22;16507;51.046;6.406;2023-02-01T03:29:45;5.90;99.90
29575;DHT22;16507;51.046;6.406;2023-02-01T03:32:11;5.90;99.90
29575;DHT22;16507;51.046;6.406;2023-02-01T03:34:36;5.80;99.90
29575;DHT22;16507;51.046;6.406;2023-02-01T03:37:03;5.80;99.90
29575;DHT22;16507;51.046;6.406;2023-02-01T03:39:34;5.80;99.90
29575;DHT22;16507;51.046;6.406;2023-02-01T03:42:02;5.80;99.90
29575;DHT22;16507;51.046;6.406;2023-02-01T03:44:31;5.80;99.90
29575;DHT22;16507;51.046;6.406;2023-02-01T03:49:29;5.70;99.90
29575;DHT22;16507;51.046;6.406;2023-02-01T03:51:55;5.70;99.90
29575;DHT22;16507;51.046;6.406;2023-02-01T03:54:22;5.70;99.90
29575;DHT22;16507;51.046;6.406;2023-02-01T03:56:49;5.70;99.90
29575;DHT22;16507;51.046;6.406;2023-02-01T03:59:15;5.70;99.90
29575;DHT22;16507;51.046;6.406;2023-02-01T04:01:41;5.70;99.90
29575;DHT22;16507;51.046;6.406;2023-02-01T04:04:07;5.70;99.90
29575;DHT22;16507;51.046;6.406;2023-02-01T04:06:34;5.70;99.90
29575;DHT22;16507;51.046;6.406;2023-02-01T04:09:00;5.80;99.90
29575;DHT22;16507;51.046;6.406;2023-02-01T04:11:25;5.80;99.90
29575;DHT22;16507;51.046;6.406;2023-02-01T04:13:52;5.80;99.90
29575;DHT22;16507;51.046;6.406;2023-02-01T04:16:18;5.80;99.90
29575;DHT22;16507;51.046;6.406;2023-02-01T04:18:44;5.70;99.90
29575;DHT22;16507;51.046;6.406;2023-02-01T04:21:09;5.70;99.90
29575;DHT22;16507;51.046;6.406;2023-02-01T04:23:35;5.70;99.90
29575;DHT22;16507;51.046;6.406;2023-02-01T04:26:01;5.60;99.90
29575;DHT22;16507;51.046;6.406;2023-02-01T04:28:27;5.60;99.90
29575;DHT22;16507;51.046;6.406;2023-02-01T04:30:53;5.60;99.90
29575;DHT22;16507;51.046;6.406;2023-02-01T04:33:19;5.60;99.90
29575;DHT22;16507;51.046;6.406;2023-02-01T04:35:44;5.50;99.90
29575;DHT22;16507;51.046;6.406;2023-02-01T04:38:10;5.40;99.90
29575;DHT22;16507;51.046;6.406;2023-02-01T04:40:35;5.50;99.90
29575;DHT22;16507;51.046;6.406;2023-02-01T04:43:03;5.40;99.90
29575;DHT22;16507;51.046;6.406;2023-02-01T04:45:29;5.40;99.90
29575;DHT22;16507;51.046;6.406;2023-02-01T04:47:54;5.40;99.90
29575;DHT22;16507;51.046;6.406;2023-02-01T04:50:20;5.50;99.90
29575;DHT22;16507;51.046;6.406;2023-02-01T04:52:45;5.50;99.90
29575;DHT22;16507;51.046;6.406;2023-02-01T04:55:11;5.60;99.90
29575;DHT22;16507;51.046;6.406;2023-02-01T04:57:38;5.60;99.90
29575;DHT22;16507;51.046;6.406;2023-02-01T05:00:06;5.50;99.90
29575;DHT22;16507;51.046;6.406;2023-02-01T05:02:32;5.50;99.90
29575;DHT22;16507;51.046;6.406;2023-02-01T05:04:58;5.50;99.90
29575;DHT22;16507;51.046;6.406;2023-02-01T05:07:23;5.50;99.90
29575;DHT22;16507;51.046;6.406;2023-02-01T05:09:49;5.50;99.90
29575;DHT22;16507;51.046;6.406;2023-02-01T05:12:14;5.30;99.90
29575;DHT22;16507;51.046;6.406;2023-02-01T05:14:58;5.30;99.90
29575;DHT22;16507;51.046;6.406;2023-02-01T05:17:23;5.40;99.90
29575;DHT22;16507;51.046;6.406;2023-02-01T05:19:49;5.40;99.90
29575;DHT22;16507;51.046;6.406;2023-02-01T05:22:14;5.30;99.90
29575;DHT22;16507;51.046;6.406;2023-02-01T05:24:40;5.40;99.90
29575;DHT22;16507;51.046;6.406;2023-02-01T05:27:05;5.30;99.90
29575;DHT22;16507;51.046;6.406;2023-02-01T05:29:31;5.30;99.90
29575;DHT22;16507;51.046;6.406;2023-02-01T05:31:56;5.30;99.90
29575;DHT22;16507;51.046;6.406;2023-02-01T05:34:22;5.30;99.90
29575;DHT22;16507;51.046;6.406;2023-02-01T05:36:47;5.20;99.90
29575;DHT22;16507;51.046;6.406;2023-02-01T05:39:13;5.20;99.90
29575;DHT22;16507;51.046;6.406;2023-02-01T05:41:39;5.20;99.90
29575;DHT22;16507;51.046;6.406;2023-02-01T05:44:04;5.20;99.90
29575;DHT22;16507;51.046;6.406;2023-02-01T05:46:32;5.20;99.90
29575;DHT22;16507;51.046;6.406;2023-02-01T05:48:58;5.20;99.90
29575;DHT22;16507;51.046;6.406;2023-02-01T05:51:23;5.20;99.90
29575;DHT22;16507;51.046;6.406;2023-02-01T05:53:49;5.20;99.90
29575;DHT22;16507;51.046;6.406;2023-02-01T05:56:14;5.10;99.90
29575;DHT22;16507;51.046;6.406;2023-02-01T05:58:40;5.10;99.90
29575;DHT22;16507;51.046;6.406;2023-02-01T06:01:05;5.10;99.90
29575;DHT22;16507;51.046;6.406;2023-02-01T06:03:31;5.10;99.90
29575;DHT22;16507;51.046;6.406;2023-02-01T06:05:56;5.00;99.90
29575;DHT22;16507;51.046;6.406;2023-02-01T06:08:22;5.00;99.90
29575;DHT22;16507;51.046;6.406;2023-02-01T06:10:51;4.90;99.90
29575;DHT22;16507;51.046;6.406;2023-02-01T06:13:22;4.90;99.90
29575;DHT22;16507;51.046;6.406;2023-02-01T06:15:47;4.80;99.90
29575;DHT22;16507;51.046;6.406;2023-02-01T06:18:13;4.80;99.90
29575;DHT22;16507;51.046;6.406;2023-02-01T06:20:40;4.90;99.90
29575;DHT22;16507;51.046;6.406;2023-02-01T06:23:06;4.90;99.90
29575;DHT22;16507;51.046;6.406;2023-02-01T06:25:31;4.90;99.90
29575;DHT22;16507;51.046;6.406;2023-02-01T06:27:59;4.80;99.90
29575;DHT22;16507;51.046;6.406;2023-02-01T06:30:25;4.90;99.90
29575;DHT22;16507;51.046;6.406;2023-02-01T06:32:51;4.90;99.90
29575;DHT22;16507;51.046;6.406;2023-02-01T06:35:18;4.80;99.90
29575;DHT22;16507;51.046;6.406;2023-02-01T06:37:44;4.80;99.90
29575;DHT22;16507;51.046;6.406;2023-02-01T06:40:10;4.80;99.90
29575;DHT22;16507;51.046;6.406;2023-02-01T06:42:36;4.90;99.90
29575;DHT22;16507;51.046;6.406;2023-02-01T06:45:02;4.80;99.90
29575;DHT22;16507;51.046;6.406;2023-02-01T06:47:27;4.80;99.90
29575;DHT22;16507;51.046;6.406;2023-02-01T06:49:53;4.70;99.90
29575;DHT22;16507;51.046;6.406;2023-02-01T06:52:18;4.70;99.90
29575;DHT22;16507;51.046;6.406;2023-02-01T06:54:44;4.70;99.90
29575;DHT22;16507;51.046;6.406;2023-02-01T06:57:09;4.80;99.90
29575;DHT22;16507;51.046;6.406;2023-02-01T06:59:35;4.70;99.90
29575;DHT22;16507;51.046;6.406;2023-02-01T07:02:00;4.70;99.90
29575;DHT22;16507;51.046;6.406;2023-02-01T07:04:26;4.70;99.90
29575;DHT22;16507;51.046;6.406;2023-02-01T07:06:51;4.80;99.90
29575;DHT22;16507;51.046;6.406;2023-02-01T07:09:17;4.70;99.90
29575;DHT22;16507;51.046;6.406;2023-02-01T07:11:42;4.70;99.90
29575;DHT22;16507;51.046;6.406;2023-02-01T07:14:12;4.70;99.90
29575;DHT22;16507;51.046;6.406;2023-02-01T07:16:37;4.70;99.90
29575;DHT22;16507;51.046;6.406;2023-02-01T07:19:03;4.70;99.90
29575;DHT22;16507;51.046;6.406;2023-02-01T07:21:28;4.70;99.90
29575;DHT22;16507;51.046;6.406;2023-02-01T07:23:54;4.70;99.90
29575;DHT22;16507;51.046;6.406;2023-02-01T07:26:20;4.70;99.90
29575;DHT22;16507;51.046;6.406;2023-02-01T07:28:45;4.60;99.90
29575;DHT22;16507;51.046;6.406;2023-02-01T07:31:13;4.70;99.90
29575;DHT22;16507;51.046;6.406;2023-02-01T07:33:40;4.70;99.90
29575;DHT22;16507;51.046;6.406;2023-02-01T07:36:06;4.80;99.90
29575;DHT22;16507;51.046;6.406;2023-02-01T07:38:32;4.80;99.90
29575;DHT22;16507;51.046;6.406;2023-02-01T07:40:58;4.90;99.90
29575;DHT22;16507;51.046;6.406;2023-02-01T07:43:25;4.90;99.90
29575;DHT22;16507;51.046;6.406;2023-02-01T07:45:51;4.90;99.90
29575;DHT22;16507;51.046;6.406;2023-02-01T07:48:17;4.90;99.90
29575;DHT22;16507;51.046;6.406;2023-02-01T07:50:43;4.90;99.90
29575;DHT22;16507;51.046;6.406;2023-02-01T07:53:08;4.90;99.90
29575;DHT22;16507;51.046;6.406;2023-02-01T07:55:36;4.90;99.90
29575;DHT22;16507;51.046;6.406;2023-02-01T07:58:02;4.90;99.90
29575;DHT22;16507;51.046;6.406;2023-02-01T08:00:27;4.90;99.90
29575;DHT22;16507;51.046;6.406;2023-02-01T08:03:11;4.90;99.90
29575;DHT22;16507;51.046;6.406;2023-02-01T08:05:37;4.90;99.90
29575;DHT22;16507;51.046;6.406;2023-02-01T08:08:02;4.90;99.90
29575;DHT22;16507;51.046;6.406;2023-02-01T08:10:28;4.90;99.90
29575;DHT22;16507;51.046;6.406;2023-02-01T08:12:57;4.90;99.90
29575;DHT22;16507;51.046;6.406;2023-02-01T08:15:22;4.90;99.90
29575;DHT22;16507;51.046;6.406;2023-02-01T08:17:48;4.90;99.90
29575;DHT22;16507;51.046;6.406;2023-02-01T08:20:14;4.90;99.90
29575;DHT22;16507;51.046;6.406;2023-02-01T08:22:40;4.80;99.90
29575;DHT22;16507;51.046;6.406;2023-02-01T08:25:05;4.80;99.90
29575;DHT22;16507;51.046;6.406;2023-02-01T08:27:34;4.90;99.90
29575;DHT22;16507;51.046;6.406;2023-02-01T08:30:00;5.00;99.90
29575;DHT22;16507;51.046;6.406;2023-02-01T08:32:26;5.10;99.90
29575;DHT22;16507;51.046;6.406;2023-02-01T08:34:51;5.10;99.90
29575;DHT22;16507;51.046;6.406;2023-02-01T08:37:17;5.10;99.90
29575;DHT22;16507;51.046;6.406;2023-02-01T08:39:42;5.20;99.90
29575;DHT22;16507;51.046;6.406;2023-02-01T08:42:12;5.20;99.90
29575;DHT22;16507;51.046;6.406;2023-02-01T08:44:56;5.20;99.90
29575;DHT22;16507;51.046;6.406;2023-02-01T08:47:22;5.30;99.90
29575;DHT22;16507;51.046;6.406;2023-02-01T08:49:47;5.40;99.90
29575;DHT22;16507;51.046;6.406;2023-02-01T08:52:13;5.40;99.90
29575;DHT22;16507;51.046;6.406;2023-02-01T08:54:38;5.40;99.90
29575;DHT22;16507;51.046;6.406;2023-02-01T08:57:06;5.40;99.90
29575;DHT22;16507;51.046;6.406;2023-02-01T08:59:31;5.40;99.90
29575;DHT22;16507;51.046;6.406;2023-02-01T09:01:57;5.50;99.90
29575;DHT22;16507;51.046;6.406;2023-02-01T09:04:23;5.50;99.90
29575;DHT22;16507;51.046;6.406;2023-02-01T09:06:48;5.50;99.90
29575;DHT22;16507;51.046;6.406;2023-02-01T09:09:14;5.50;99.90
29575;DHT22;16507;51.046;6.406;2023-02-01T09:11:39;5.50;99.90
29575;DHT22;16507;51.046;6.406;2023-02-01T09:14:05;5.50;99.90
29575;DHT22;16507;51.046;6.406;2023-02-01T09:16:31;5.50;99.90
29575;DHT22;16507;51.046;6.406;2023-02-01T09:18:56;5.50;99.90
29575;DHT22;16507;51.046;6.406;2023-02-01T09:21:22;5.50;99.90
29575;DHT22;16507;51.046;6.406;2023-02-01T09:23:48;5.50;99.90
29575;DHT22;16507;51.046;6.406;2023-02-01T09:26:15;5.60;99.90
29575;DHT22;16507;51.046;6.406;2023-02-01T09:28:40;5.60;99.90
29575;DHT22;16507;51.046;6.406;2023-02-01T09:31:06;5.70;99.90
29575;DHT22;16507;51.046;6.406;2023-02-01T09:33:31;6.00;99.90
29575;DHT22;16507;51.046;6.406;2023-02-01T09:36:01;5.70;99.90
29575;DHT22;16507;51.046;6.406;2023-02-01T09:38:27;5.70;99.90
29575;DHT22;16507;51.046;6.406;2023-02-01T09:40:53;5.70;99.90
29575;DHT22;16507;51.046;6.406;2023-02-01T09:48:14;5.70;99.90
29575;DHT22;16507;51.046;6.406;2023-02-01T09:50:43;5.70;99.90
29575;DHT22;16507;51.046;6.406;2023-02-01T09:53:24;5.80;99.90
29575;DHT22;16507;51.046;6.406;2023-02-01T09:55:53;5.90;99.90
29575;DHT22;16507;51.046;6.406;2023-02-01T09:58:34;6.10;99.90
29575;DHT22;16507;51.046;6.406;2023-02-01T10:01:01;6.20;99.90
29575;DHT22;16507;51.046;6.406;2023-02-01T10:03:28;6.30;99.90
29575;DHT22;16507;51.046;6.406;2023-02-01T10:05:57;6.40;99.90
29575;DHT22;16507;51.046;6.406;2023-02-01T10:08:33;6.40;99.90
29575;DHT22;16507;51.046;6.406;2023-02-01T10:18:48;6.40;99.90
29575;DHT22;16507;51.046;6.406;2023-02-01T10:26:21;6.60;99.90
29575;DHT22;16507;51.046;6.406;2023-02-01T10:28:51;6.70;99.90
29575;DHT22;16507;51.046;6.406;2023-02-01T10:31:18;6.70;99.90
29575;DHT22;16507;51.046;6.406;2023-02-01T10:33:48;6.70;99.90
29575;DHT22;16507;51.046;6.406;2023-02-01T10:39:00;6.80;99.90
29575;DHT22;16507;51.046;6.406;2023-02-01T10:41:35;6.90;99.90
29575;DHT22;16507;51.046;6.406;2023-02-01T10:44:03;7.10;99.90
29575;DHT22;16507;51.046;6.406;2023-02-01T10:46:29;7.20;99.90
29575;DHT22;16507;51.046;6.406;2023-02-01T10:48:56;7.10;99.90
29575;DHT22;16507;51.046;6.406;2023-02-01T10:51:29;7.20;99.90
29575;DHT22;16507;51.046;6.406;2023-02-01T10:54:03;7.20;99.90
29575;DHT22;16507;51.046;6.406;2023-02-01T10:56:29;7.20;99.90
29575;DHT22;16507;51.046;6.406;2023-02-01T10:59:00;7.20;99.90
29575;DHT22;16507;51.046;6.406;2023-02-01T11:01:39;7.30;99.90
29575;DHT22;16507;51.046;6.406;2023-02-01T11:04:06;7.30;99.90
29575;DHT22;16507;51.046;6.406;2023-02-01T11:06:39;7.40;99.90
29575;DHT22;16507;51.046;6.406;2023-02-01T11:11:30;7.50;99.90
29575;DHT22;16507;51.046;6.406;2023-02-01T11:14:00;7.50;99.90
29575;DHT22;16507;51.046;6.406;2023-02-01T11:16:29;7.60;99.90
29575;DHT22;16507;51.046;6.406;2023-02-01T11:18:55;7.70;99.90
29575;DHT22;16507;51.046;6.406;2023-02-01T11:21:21;7.60;99.90
29575;DHT22;16507;51.046;6.406;2023-02-01T11:23:46;7.50;99.90
29575;DHT22;16507;51.046;6.406;2023-02-01T11:26:30;7.50;99.90
29575;DHT22;16507;51.046;6.406;2023-02-01T11:28:59;7.50;99.90
29575;DHT22;16507;51.046;6.406;2023-02-01T11:31:26;7.50;99.90
29575;DHT22;16507;51.046;6.406;2023-02-01T11:33:54;7.40;99.90
29575;DHT22;16507;51.046;6.406;2023-02-01T11:36:21;7.40;99.90
29575;DHT22;16507;51.046;6.406;2023-02-01T11:38:52;7.40;99.90
29575;DHT22;16507;51.046;6.406;2023-02-01T11:41:25;7.50;99.90
29575;DHT22;16507;51.046;6.406;2023-02-01T11:43:55;7.50;99.90
29575;DHT22;16507;51.046;6.406;2023-02-01T11:46:23;7.40;99.90
29575;DHT22;16507;51.046;6.406;2023-02-01T11:48:51;7.40;99.90
29575;DHT22;16507;51.046;6.406;2023-02-01T11:54:07;7.30;99.90
29575;DHT22;16507;51.046;6.406;2023-02-01T12:08:06;7.50;99.90
29575;DHT22;16507;51.046;6.406;2023-02-01T12:20:57;7.90;99.90
29575;DHT22;16507;51.046;6.406;2023-02-01T12:28:33;7.80;99.90
29575;DHT22;16507;51.046;6.406;2023-02-01T12:31:11;7.80;99.90
29575;DHT22;16507;51.046;6.406;2023-02-01T12:33:49;7.70;99.90
29575;DHT22;16507;51.046;6.406;2023-02-01T12:46:04;7.50;99.90
29575;DHT22;16507;51.046;6.406;2023-02-01T12:50:59;7.50;99.90
29575;DHT22;16507;51.046;6.406;2023-02-01T12:54:14;7.50;99.90
29575;DHT22;16507;51.046;6.406;2023-02-01T12:56:18;7.50;99.90
29575;DHT22;16507;51.046;6.406;2023-02-01T12:58:47;7.50;99.90
29575;DHT22;16507;51.046;6.406;2023-02-01T13:03:58;7.50;99.90
29575;DHT22;16507;51.046;6.406;2023-02-01T13:06:29;7.50;99.90
29575;DHT22;16507;51.046;6.406;2023-02-01T13:11:29;7.50;99.90
29575;DHT22;16507;51.046;6.406;2023-02-01T13:14:01;7.50;99.90
29575;DHT22;16507;51.046;6.406;2023-02-01T13:16:30;7.60;99.90
29575;DHT22;16507;51.046;6.406;2023-02-01T13:18:59;7.50;99.90
29575;DHT22;16507;51.046;6.406;2023-02-01T13:21:27;7.50;99.90
29575;DHT22;16507;51.046;6.406;2023-02-01T13:23:54;7.60;99.90
29575;DHT22;16507;51.046;6.406;2023-02-01T13:26:20;7.50;99.90
29575;DHT22;16507;51.046;6.406;2023-02-01T13:28:47;7.50;99.90
29575;DHT22;16507;51.046;6.406;2023-02-01T13:33:47;7.50;99.90
29575;DHT22;16507;51.046;6.406;2023-02-01T13:36:22;7.60;99.90
29575;DHT22;16507;51.046;6.406;2023-02-01T13:43:52;7.70;99.90
29575;DHT22;16507;51.046;6.406;2023-02-01T13:46:18;7.70;99.90
29575;DHT22;16507;51.046;6.406;2023-02-01T13:48:55;7.70;99.90
29575;DHT22;16507;51.046;6.406;2023-02-01T13:54:03;7.80;99.90
29575;DHT22;16507;51.046;6.406;2023-02-01T13:56:32;7.80;99.90
29575;DHT22;16507;51.046;6.406;2023-02-01T13:59:35;7.80;99.90
29575;DHT22;16507;51.046;6.406;2023-02-01T14:01:49;7.90;99.90
29575;DHT22;16507;51.046;6.406;2023-02-01T14:06:59;7.90;99.90
29575;DHT22;16507;51.046;6.406;2023-02-01T14:09:32;7.90;99.90
29575;DHT22;16507;51.046;6.406;2023-02-01T14:12:32;7.90;99.90
29575;DHT22;16507;51.046;6.406;2023-02-01T14:14:43;7.90;99.90
29575;DHT22;16507;51.046;6.406;2023-02-01T14:19:34;7.80;99.90
29575;DHT22;16507;51.046;6.406;2023-02-01T14:22:01;7.80;99.90
29575;DHT22;16507;51.046;6.406;2023-02-01T14:24:52;7.90;99.90
29575;DHT22;16507;51.046;6.406;2023-02-01T14:27:20;7.90;99.90
29575;DHT22;16507;51.046;6.406;2023-02-01T14:29:54;7.80;99.90
29575;DHT22;16507;51.046;6.406;2023-02-01T14:32:41;7.80;99.90
29575;DHT22;16507;51.046;6.406;2023-02-01T14:35:17;7.80;99.90
29575;DHT22;16507;51.046;6.406;2023-02-01T14:37:43;7.80;99.90
29575;DHT22;16507;51.046;6.406;2023-02-01T14:42:38;7.80;99.90
29575;DHT22;16507;51.046;6.406;2023-02-01T14:47:42;7.80;99.90
29575;DHT22;16507;51.046;6.406;2023-02-01T14:53:36;7.80;99.90
29575;DHT22;16507;51.046;6.406;2023-02-01T15:00:59;7.90;99.90
29575;DHT22;16507;51.046;6.406;2023-02-01T15:05:54;7.80;99.90
29575;DHT22;16507;51.046;6.406;2023-02-01T15:08:25;7.80;99.90
29575;DHT22;16507;51.046;6.406;2023-02-01T15:10:51;7.70;99.90
29575;DHT22;16507;51.046;6.406;2023-02-01T15:13:18;7.70;99.90
29575;DHT22;16507;51.046;6.406;2023-02-01T15:15:44;7.70;99.90
29575;DHT22;16507;51.046;6.406;2023-02-01T15:18:14;7.70;99.90
29575;DHT22;16507;51.046;6.406;2023-02-01T15:20:41;7.70;99.90
29575;DHT22;16507;51.046;6.406;2023-02-01T15:23:15;7.70;99.90
29575;DHT22;16507;51.046;6.406;2023-02-01T15:25:44;7.70;99.90
29575;DHT22;16507;51.046;6.406;2023-02-01T15:28:12;7.80;99.90
29575;DHT22;16507;51.046;6.406;2023-02-01T15:30:38;7.80;99.90
29575;DHT22;16507;51.046;6.406;2023-02-01T15:35:40;7.80;99.90
29575;DHT22;16507;51.046;6.406;2023-02-01T15:39:09;7.70;99.90
29575;DHT22;16507;51.046;6.406;2023-02-01T15:41:13;7.70;99.90
29575;DHT22;16507;51.046;6.406;2023-02-01T15:43:44;7.70;99.90
29575;DHT22;16507;51.046;6.406;2023-02-01T15:46:12;7.70;99.90
29575;DHT22;16507;51.046;6.406;2023-02-01T15:48:40;7.70;99.90
29575;DHT22;16507;51.046;6.406;2023-02-01T15:51:11;7.70;99.90
29575;DHT22;16507;51.046;6.406;2023-02-01T15:53:37;7.80;99.90
29575;DHT22;16507;51.046;6.406;2023-02-01T15:56:03;7.70;99.90
29575;DHT22;16507;51.046;6.406;2023-02-01T15:58:29;7.70;99.90
29575;DHT22;16507;51.046;6.406;2023-02-01T16:00:58;7.60;99.90
29575;DHT22;16507;51.046;6.406;2023-02-01T16:03:33;7.50;99.90
29575;DHT22;16507;51.046;6.406;2023-02-01T16:06:04;7.30;99.90
29575;DHT22;16507;51.046;6.406;2023-02-01T16:08:30;7.00;99.90
29575;DHT22;16507;51.046;6.406;2023-02-01T16:11:40;7.00;99.90
29575;DHT22;16507;51.046;6.406;2023-02-01T16:13:46;7.00;99.90
29575;DHT22;16507;51.046;6.406;2023-02-01T16:16:12;7.00;99.90
29575;DHT22;16507;51.046;6.406;2023-02-01T16:18:39;7.00;99.90
29575;DHT22;16507;51.046;6.406;2023-02-01T16:21:05;7.20;99.90
29575;DHT22;16507;51.046;6.406;2023-02-01T16:23:33;7.10;99.90
29575;DHT22;16507;51.046;6.406;2023-02-01T16:25:58;7.10;99.90
29575;DHT22;16507;51.046;6.406;2023-02-01T16:28:24;7.10;99.90
29575;DHT22;16507;51.046;6.406;2023-02-01T16:30:50;7.20;99.90
29575;DHT22;16507;51.046;6.406;2023-02-01T16:33:16;7.30;99.90
29575;DHT22;16507;51.046;6.406;2023-02-01T16:35:44;7.20;99.90
29575;DHT22;16507;51.046;6.406;2023-02-01T16:38:14;7.20;99.90
29575;DHT22;16507;51.046;6.406;2023-02-01T16:40:41;7.20;99.90
29575;DHT22;16507;51.046;6.406;2023-02-01T16:45:38;7.10;99.90
29575;DHT22;16507;51.046;6.406;2023-02-01T16:48:05;7.20;99.90
29575;DHT22;16507;51.046;6.406;2023-02-01T16:50:31;7.20;99.90
29575;DHT22;16507;51.046;6.406;2023-02-01T16:52:57;7.10;99.90
29575;DHT22;16507;51.046;6.406;2023-02-01T16:55:22;7.10;99.90
29575;DHT22;16507;51.046;6.406;2023-02-01T16:57:48;7.10;99.90
29575;DHT22;16507;51.046;6.406;2023-02-01T17:00:13;7.00;99.90
29575;DHT22;16507;51.046;6.406;2023-02-01T17:02:41;7.10;99.90
29575;DHT22;16507;51.046;6.406;2023-02-01T17:05:08;7.10;99.90
29575;DHT22;16507;51.046;6.406;2023-02-01T17:07:34;7.10;99.90
29575;DHT22;16507;51.046;6.406;2023-02-01T17:10:00;7.10;99.90
29575;DHT22;16507;51.046;6.406;2023-02-01T17:12:28;7.10;99.90
29575;DHT22;16507;51.046;6.406;2023-02-01T17:14:55;7.10;99.90
29575;DHT22;16507;51.046;6.406;2023-02-01T17:17:21;7.10;99.90
29575;DHT22;16507;51.046;6.406;2023-02-01T17:19:47;7.10;99.90
29575;DHT22;16507;51.046;6.406;2023-02-01T17:22:17;7.10;99.90
29575;DHT22;16507;51.046;6.406;2023-02-01T17:24:43;7.10;99.90
29575;DHT22;16507;51.046;6.406;2023-02-01T17:27:08;7.10;99.90
29575;DHT22;16507;51.046;6.406;2023-02-01T17:29:34;7.20;99.90
29575;DHT22;16507;51.046;6.406;2023-02-01T17:31:59;7.20;99.90
29575;DHT22;16507;51.046;6.406;2023-02-01T17:34:25;7.20;99.90
29575;DHT22;16507;51.046;6.406;2023-02-01T17:36:51;7.20;99.90
29575;DHT22;16507;51.046;6.406;2023-02-01T17:39:17;7.20;99.90
29575;DHT22;16507;51.046;6.406;2023-02-01T17:42:01;7.20;99.90
29575;DHT22;16507;51.046;6.406;2023-02-01T17:44:27;7.20;99.90
29575;DHT22;16507;51.046;6.406;2023-02-01T17:46:53;7.20;99.90
29575;DHT22;16507;51.046;6.406;2023-02-01T17:49:19;7.20;99.90
29575;DHT22;16507;51.046;6.406;2023-02-01T17:51:45;7.20;99.90
29575;DHT22;16507;51.046;6.406;2023-02-01T17:54:13;7.20;99.90
29575;DHT22;16507;51.046;6.406;2023-02-01T17:56:39;7.10;99.90
29575;DHT22;16507;51.046;6.406;2023-02-01T17:59:05;7.10;99.90
29575;DHT22;16507;51.046;6.406;2023-02-01T18:01:30;7.10;99.90
29575;DHT22;16507;51.046;6.406;2023-02-01T18:03:56;7.10;99.90
29575;DHT22;16507;51.046;6.406;2023-02-01T18:06:23;7.10;99.90